KMLJ/MLJ METAR and TAF weather

Enter ICAO airport designator
Station Type Date Time Source
KMLJ METAR 2022/08/16 19:43 UTC NOAA

KMLJ 161943Z AUTO 02004KT 10SM SCT013 SCT018 28/23 A2995 RMK AO2


Station Type Date Time Source
KMLJ Decoded METAR 2022/08/16 19:43 UTC NOAA

Milledgeville, Baldwin County Airport, GA, United States (KMLJ) 33-09-15N 083-14-26W
Aug 16, 2022 - 03:43 PM EDT / 2022.08.16 1943 UTC
Wind: from the NNE (020 degrees) at 5 MPH (4 KT):0
Visibility: 10 mile(s):0
Sky conditions: partly cloudy
Temperature: 82 F (28 C)
Dew Point: 73 F (23 C)
Relative Humidity: 74%
Pressure (altimeter): 29.95 in. Hg (1014 hPa)
ob: KMLJ 161943Z AUTO 02004KT 10SM SCT013 SCT018 28/23 A2995 RMK AO2
cycle: 19

Station Type Date Time Source
KMLJ TAF UTC NOAA

Error!

Example: see airport list